sensor_id;sensor_type;location;lat;lon;timestamp;P1;durP1;ratioP1;P2;durP2;ratioP2
79697;SDS011;69168;42.708;23.286;2024-01-30T00:01:49;5.00;;;3.10;;
79697;SDS011;69168;42.708;23.286;2024-01-30T00:04:15;5.10;;;2.92;;
79697;SDS011;69168;42.708;23.286;2024-01-30T00:06:42;6.00;;;3.38;;
79697;SDS011;69168;42.708;23.286;2024-01-30T00:09:08;5.05;;;3.13;;
79697;SDS011;69168;42.708;23.286;2024-01-30T00:11:34;7.05;;;2.75;;
79697;SDS011;69168;42.708;23.286;2024-01-30T00:13:59;5.47;;;4.13;;
79697;SDS011;69168;42.708;23.286;2024-01-30T00:16:25;5.40;;;3.25;;
79697;SDS011;69168;42.708;23.286;2024-01-30T00:18:51;5.30;;;3.60;;
79697;SDS011;69168;42.708;23.286;2024-01-30T00:21:17;5.88;;;3.42;;
79697;SDS011;69168;42.708;23.286;2024-01-30T00:23:43;7.75;;;3.83;;
79697;SDS011;69168;42.708;23.286;2024-01-30T00:26:09;6.90;;;3.47;;
79697;SDS011;69168;42.708;23.286;2024-01-30T00:28:34;5.43;;;3.45;;
79697;SDS011;69168;42.708;23.286;2024-01-30T00:31:00;6.95;;;3.53;;
79697;SDS011;69168;42.708;23.286;2024-01-30T00:33:26;6.20;;;3.35;;
79697;SDS011;69168;42.708;23.286;2024-01-30T00:35:51;6.13;;;3.53;;
79697;SDS011;69168;42.708;23.286;2024-01-30T00:38:17;7.93;;;3.80;;
79697;SDS011;69168;42.708;23.286;2024-01-30T00:40:43;5.75;;;3.28;;
79697;SDS011;69168;42.708;23.286;2024-01-30T00:43:08;5.20;;;3.15;;
79697;SDS011;69168;42.708;23.286;2024-01-30T00:45:34;5.88;;;3.55;;
79697;SDS011;69168;42.708;23.286;2024-01-30T00:47:59;7.32;;;3.38;;
79697;SDS011;69168;42.708;23.286;2024-01-30T00:50:25;7.65;;;4.25;;
79697;SDS011;69168;42.708;23.286;2024-01-30T00:52:50;8.10;;;3.80;;
79697;SDS011;69168;42.708;23.286;2024-01-30T00:55:16;8.63;;;3.83;;
79697;SDS011;69168;42.708;23.286;2024-01-30T00:57:41;7.95;;;4.00;;
79697;SDS011;69168;42.708;23.286;2024-01-30T01:00:07;5.60;;;3.38;;
79697;SDS011;69168;42.708;23.286;2024-01-30T01:02:37;8.00;;;3.72;;
79697;SDS011;69168;42.708;23.286;2024-01-30T01:05:04;7.30;;;3.72;;
79697;SDS011;69168;42.708;23.286;2024-01-30T01:07:30;8.23;;;3.47;;
79697;SDS011;69168;42.708;23.286;2024-01-30T01:09:56;8.20;;;4.35;;
79697;SDS011;69168;42.708;23.286;2024-01-30T01:12:21;6.93;;;3.80;;
79697;SDS011;69168;42.708;23.286;2024-01-30T01:14:47;5.53;;;3.15;;
79697;SDS011;69168;42.708;23.286;2024-01-30T01:17:12;7.13;;;3.95;;
79697;SDS011;69168;42.708;23.286;2024-01-30T01:19:38;5.63;;;3.10;;
79697;SDS011;69168;42.708;23.286;2024-01-30T01:22:03;6.00;;;2.95;;
79697;SDS011;69168;42.708;23.286;2024-01-30T01:24:32;4.68;;;2.97;;
79697;SDS011;69168;42.708;23.286;2024-01-30T01:27:00;7.50;;;3.38;;
79697;SDS011;69168;42.708;23.286;2024-01-30T01:29:26;5.07;;;2.65;;
79697;SDS011;69168;42.708;23.286;2024-01-30T01:31:56;4.28;;;2.53;;
79697;SDS011;69168;42.708;23.286;2024-01-30T01:34:22;4.40;;;2.58;;
79697;SDS011;69168;42.708;23.286;2024-01-30T01:36:51;5.82;;;3.15;;
79697;SDS011;69168;42.708;23.286;2024-01-30T01:39:20;5.40;;;2.67;;
79697;SDS011;69168;42.708;23.286;2024-01-30T01:41:45;6.05;;;2.90;;
79697;SDS011;69168;42.708;23.286;2024-01-30T01:44:11;4.22;;;2.80;;
79697;SDS011;69168;42.708;23.286;2024-01-30T01:46:37;5.43;;;3.05;;
79697;SDS011;69168;42.708;23.286;2024-01-30T01:49:03;5.85;;;2.95;;
79697;SDS011;69168;42.708;23.286;2024-01-30T01:51:31;6.00;;;3.42;;
79697;SDS011;69168;42.708;23.286;2024-01-30T01:53:58;7.63;;;2.72;;
79697;SDS011;69168;42.708;23.286;2024-01-30T01:56:27;4.57;;;2.88;;
79697;SDS011;69168;42.708;23.286;2024-01-30T01:58:54;5.00;;;2.47;;
79697;SDS011;69168;42.708;23.286;2024-01-30T02:01:20;4.45;;;2.78;;
79697;SDS011;69168;42.708;23.286;2024-01-30T02:03:46;4.45;;;2.63;;
79697;SDS011;69168;42.708;23.286;2024-01-30T02:06:15;4.97;;;2.78;;
79697;SDS011;69168;42.708;23.286;2024-01-30T02:08:41;5.65;;;3.00;;
79697;SDS011;69168;42.708;23.286;2024-01-30T02:11:07;4.75;;;3.08;;
79697;SDS011;69168;42.708;23.286;2024-01-30T02:13:33;4.72;;;3.25;;
79697;SDS011;69168;42.708;23.286;2024-01-30T02:15:59;4.72;;;3.05;;
79697;SDS011;69168;42.708;23.286;2024-01-30T02:18:26;5.95;;;4.15;;
79697;SDS011;69168;42.708;23.286;2024-01-30T02:20:52;5.85;;;3.45;;
79697;SDS011;69168;42.708;23.286;2024-01-30T02:23:19;6.30;;;3.33;;
79697;SDS011;69168;42.708;23.286;2024-01-30T02:25:45;4.95;;;3.20;;
79697;SDS011;69168;42.708;23.286;2024-01-30T02:28:11;4.82;;;3.35;;
79697;SDS011;69168;42.708;23.286;2024-01-30T02:30:40;5.70;;;3.53;;
79697;SDS011;69168;42.708;23.286;2024-01-30T02:33:07;4.53;;;3.25;;
79697;SDS011;69168;42.708;23.286;2024-01-30T02:35:33;6.78;;;3.70;;
79697;SDS011;69168;42.708;23.286;2024-01-30T02:37:59;5.38;;;3.63;;
79697;SDS011;69168;42.708;23.286;2024-01-30T02:40:25;4.65;;;3.38;;
79697;SDS011;69168;42.708;23.286;2024-01-30T02:42:50;5.22;;;3.67;;
79697;SDS011;69168;42.708;23.286;2024-01-30T02:45:16;5.60;;;3.15;;
79697;SDS011;69168;42.708;23.286;2024-01-30T02:47:42;5.65;;;3.30;;
79697;SDS011;69168;42.708;23.286;2024-01-30T02:50:07;5.20;;;2.75;;
79697;SDS011;69168;42.708;23.286;2024-01-30T02:52:33;4.35;;;2.88;;
79697;SDS011;69168;42.708;23.286;2024-01-30T02:54:59;5.35;;;3.58;;
79697;SDS011;69168;42.708;23.286;2024-01-30T02:57:24;5.90;;;3.10;;
79697;SDS011;69168;42.708;23.286;2024-01-30T02:59:50;5.65;;;3.10;;
79697;SDS011;69168;42.708;23.286;2024-01-30T03:02:16;8.00;;;3.28;;
79697;SDS011;69168;42.708;23.286;2024-01-30T03:04:42;5.18;;;2.60;;
79697;SDS011;69168;42.708;23.286;2024-01-30T03:07:08;4.93;;;2.85;;
79697;SDS011;69168;42.708;23.286;2024-01-30T03:09:34;5.57;;;3.33;;
79697;SDS011;69168;42.708;23.286;2024-01-30T03:12:00;4.68;;;2.97;;
79697;SDS011;69168;42.708;23.286;2024-01-30T03:14:26;4.75;;;2.50;;
79697;SDS011;69168;42.708;23.286;2024-01-30T03:16:51;3.83;;;2.88;;
79697;SDS011;69168;42.708;23.286;2024-01-30T03:19:17;4.55;;;2.90;;
79697;SDS011;69168;42.708;23.286;2024-01-30T03:21:43;4.10;;;2.25;;
79697;SDS011;69168;42.708;23.286;2024-01-30T03:24:09;4.38;;;2.70;;
79697;SDS011;69168;42.708;23.286;2024-01-30T03:26:35;5.10;;;2.35;;
79697;SDS011;69168;42.708;23.286;2024-01-30T03:29:00;4.65;;;2.33;;
79697;SDS011;69168;42.708;23.286;2024-01-30T03:31:26;3.42;;;2.40;;
79697;SDS011;69168;42.708;23.286;2024-01-30T03:33:52;4.60;;;2.60;;
79697;SDS011;69168;42.708;23.286;2024-01-30T03:36:17;4.82;;;2.47;;
79697;SDS011;69168;42.708;23.286;2024-01-30T03:38:43;4.53;;;2.42;;
79697;SDS011;69168;42.708;23.286;2024-01-30T03:41:09;3.72;;;2.20;;
79697;SDS011;69168;42.708;23.286;2024-01-30T03:43:35;7.68;;;2.63;;
79697;SDS011;69168;42.708;23.286;2024-01-30T03:46:01;5.63;;;2.38;;
79697;SDS011;69168;42.708;23.286;2024-01-30T03:48:28;3.78;;;2.15;;
79697;SDS011;69168;42.708;23.286;2024-01-30T03:50:54;4.50;;;2.25;;
79697;SDS011;69168;42.708;23.286;2024-01-30T03:53:19;4.72;;;2.65;;
79697;SDS011;69168;42.708;23.286;2024-01-30T03:55:45;4.82;;;2.20;;
79697;SDS011;69168;42.708;23.286;2024-01-30T03:58:11;3.67;;;2.17;;
79697;SDS011;69168;42.708;23.286;2024-01-30T04:00:36;4.35;;;2.33;;
79697;SDS011;69168;42.708;23.286;2024-01-30T04:03:02;5.95;;;2.65;;
79697;SDS011;69168;42.708;23.286;2024-01-30T04:05:28;3.00;;;2.03;;
79697;SDS011;69168;42.708;23.286;2024-01-30T04:07:53;3.83;;;2.15;;
79697;SDS011;69168;42.708;23.286;2024-01-30T04:10:19;3.72;;;2.17;;
79697;SDS011;69168;42.708;23.286;2024-01-30T04:12:44;5.30;;;2.08;;
79697;SDS011;69168;42.708;23.286;2024-01-30T04:15:10;3.50;;;2.30;;
79697;SDS011;69168;42.708;23.286;2024-01-30T04:17:35;5.68;;;2.40;;
79697;SDS011;69168;42.708;23.286;2024-01-30T04:20:01;4.22;;;2.58;;
79697;SDS011;69168;42.708;23.286;2024-01-30T04:22:26;6.15;;;2.33;;
79697;SDS011;69168;42.708;23.286;2024-01-30T04:24:52;3.83;;;2.50;;
79697;SDS011;69168;42.708;23.286;2024-01-30T04:27:17;4.55;;;2.97;;
79697;SDS011;69168;42.708;23.286;2024-01-30T04:29:43;6.25;;;3.15;;
79697;SDS011;69168;42.708;23.286;2024-01-30T04:32:09;5.97;;;3.72;;
79697;SDS011;69168;42.708;23.286;2024-01-30T04:34:36;11.48;;;5.38;;
79697;SDS011;69168;42.708;23.286;2024-01-30T04:37:02;5.45;;;3.28;;
79697;SDS011;69168;42.708;23.286;2024-01-30T04:39:27;9.77;;;4.63;;
79697;SDS011;69168;42.708;23.286;2024-01-30T04:41:53;7.93;;;3.90;;
79697;SDS011;69168;42.708;23.286;2024-01-30T04:44:18;10.20;;;4.20;;
79697;SDS011;69168;42.708;23.286;2024-01-30T04:46:44;10.75;;;4.97;;
79697;SDS011;69168;42.708;23.286;2024-01-30T04:49:10;10.90;;;4.60;;
79697;SDS011;69168;42.708;23.286;2024-01-30T04:51:36;8.52;;;4.60;;
79697;SDS011;69168;42.708;23.286;2024-01-30T04:54:01;11.00;;;4.90;;
79697;SDS011;69168;42.708;23.286;2024-01-30T04:56:27;10.00;;;4.70;;
79697;SDS011;69168;42.708;23.286;2024-01-30T04:58:52;6.78;;;3.00;;
79697;SDS011;69168;42.708;23.286;2024-01-30T05:01:24;7.75;;;3.60;;
79697;SDS011;69168;42.708;23.286;2024-01-30T05:03:52;12.70;;;4.90;;
79697;SDS011;69168;42.708;23.286;2024-01-30T05:06:24;12.15;;;5.90;;
79697;SDS011;69168;42.708;23.286;2024-01-30T05:08:50;7.30;;;3.08;;
79697;SDS011;69168;42.708;23.286;2024-01-30T05:11:16;6.78;;;3.67;;
79697;SDS011;69168;42.708;23.286;2024-01-30T05:13:41;7.80;;;3.28;;
79697;SDS011;69168;42.708;23.286;2024-01-30T05:16:07;8.80;;;3.65;;
79697;SDS011;69168;42.708;23.286;2024-01-30T05:18:32;8.27;;;4.13;;
79697;SDS011;69168;42.708;23.286;2024-01-30T05:20:58;8.27;;;3.38;;
79697;SDS011;69168;42.708;23.286;2024-01-30T05:23:24;8.55;;;4.38;;
79697;SDS011;69168;42.708;23.286;2024-01-30T05:25:50;10.85;;;4.43;;
79697;SDS011;69168;42.708;23.286;2024-01-30T05:28:18;10.52;;;5.07;;
79697;SDS011;69168;42.708;23.286;2024-01-30T05:30:44;10.48;;;4.85;;
79697;SDS011;69168;42.708;23.286;2024-01-30T05:33:09;13.60;;;6.30;;
79697;SDS011;69168;42.708;23.286;2024-01-30T05:35:40;15.90;;;5.97;;
79697;SDS011;69168;42.708;23.286;2024-01-30T05:38:05;9.77;;;4.55;;
79697;SDS011;69168;42.708;23.286;2024-01-30T05:40:31;10.27;;;4.72;;
79697;SDS011;69168;42.708;23.286;2024-01-30T05:42:56;12.30;;;6.07;;
79697;SDS011;69168;42.708;23.286;2024-01-30T05:45:26;9.85;;;5.38;;
79697;SDS011;69168;42.708;23.286;2024-01-30T05:47:52;10.55;;;4.93;;
79697;SDS011;69168;42.708;23.286;2024-01-30T05:50:18;15.30;;;6.00;;
79697;SDS011;69168;42.708;23.286;2024-01-30T05:52:44;15.23;;;7.28;;
79697;SDS011;69168;42.708;23.286;2024-01-30T05:55:11;11.52;;;5.03;;
79697;SDS011;69168;42.708;23.286;2024-01-30T05:57:40;11.35;;;5.45;;
79697;SDS011;69168;42.708;23.286;2024-01-30T06:00:06;10.90;;;5.05;;
79697;SDS011;69168;42.708;23.286;2024-01-30T06:02:33;11.40;;;5.85;;
79697;SDS011;69168;42.708;23.286;2024-01-30T06:04:59;13.23;;;4.93;;
79697;SDS011;69168;42.708;23.286;2024-01-30T06:07:24;9.00;;;5.30;;
79697;SDS011;69168;42.708;23.286;2024-01-30T06:09:50;11.45;;;4.18;;
79697;SDS011;69168;42.708;23.286;2024-01-30T06:12:18;8.43;;;4.60;;
79697;SDS011;69168;42.708;23.286;2024-01-30T06:14:44;9.98;;;4.82;;
79697;SDS011;69168;42.708;23.286;2024-01-30T06:17:12;6.75;;;3.20;;
79697;SDS011;69168;42.708;23.286;2024-01-30T06:19:39;8.90;;;4.43;;
79697;SDS011;69168;42.708;23.286;2024-01-30T06:22:04;8.43;;;4.93;;
79697;SDS011;69168;42.708;23.286;2024-01-30T06:24:30;10.52;;;3.58;;
79697;SDS011;69168;42.708;23.286;2024-01-30T06:26:56;6.10;;;2.97;;
79697;SDS011;69168;42.708;23.286;2024-01-30T06:29:21;7.55;;;4.72;;
79697;SDS011;69168;42.708;23.286;2024-01-30T06:31:48;10.45;;;4.47;;
79697;SDS011;69168;42.708;23.286;2024-01-30T06:34:14;8.25;;;3.90;;
79697;SDS011;69168;42.708;23.286;2024-01-30T06:36:39;18.10;;;5.57;;
79697;SDS011;69168;42.708;23.286;2024-01-30T06:39:05;13.52;;;5.38;;
79697;SDS011;69168;42.708;23.286;2024-01-30T06:41:30;13.73;;;6.80;;
79697;SDS011;69168;42.708;23.286;2024-01-30T06:43:56;15.63;;;6.07;;
79697;SDS011;69168;42.708;23.286;2024-01-30T06:46:22;12.73;;;5.45;;
79697;SDS011;69168;42.708;23.286;2024-01-30T06:48:47;14.02;;;4.97;;
79697;SDS011;69168;42.708;23.286;2024-01-30T06:51:13;11.68;;;4.72;;
79697;SDS011;69168;42.708;23.286;2024-01-30T06:53:38;9.18;;;4.40;;
79697;SDS011;69168;42.708;23.286;2024-01-30T06:56:04;10.82;;;4.28;;
79697;SDS011;69168;42.708;23.286;2024-01-30T06:58:30;8.15;;;4.55;;
79697;SDS011;69168;42.708;23.286;2024-01-30T07:00:57;7.88;;;3.60;;
79697;SDS011;69168;42.708;23.286;2024-01-30T07:03:25;11.60;;;3.97;;
79697;SDS011;69168;42.708;23.286;2024-01-30T07:05:51;7.90;;;3.55;;
79697;SDS011;69168;42.708;23.286;2024-01-30T07:08:19;9.80;;;3.55;;
79697;SDS011;69168;42.708;23.286;2024-01-30T07:10:44;5.05;;;2.95;;
79697;SDS011;69168;42.708;23.286;2024-01-30T07:13:10;6.78;;;3.10;;
79697;SDS011;69168;42.708;23.286;2024-01-30T07:15:36;7.07;;;3.38;;
79697;SDS011;69168;42.708;23.286;2024-01-30T07:18:03;7.20;;;3.55;;
79697;SDS011;69168;42.708;23.286;2024-01-30T07:20:32;7.22;;;3.28;;
79697;SDS011;69168;42.708;23.286;2024-01-30T07:22:58;9.50;;;3.53;;
79697;SDS011;69168;42.708;23.286;2024-01-30T07:25:24;6.05;;;3.33;;
79697;SDS011;69168;42.708;23.286;2024-01-30T07:27:55;5.25;;;3.38;;
79697;SDS011;69168;42.708;23.286;2024-01-30T07:30:21;6.95;;;2.97;;
79697;SDS011;69168;42.708;23.286;2024-01-30T07:32:48;7.50;;;3.00;;
79697;SDS011;69168;42.708;23.286;2024-01-30T07:35:14;6.70;;;2.90;;
79697;SDS011;69168;42.708;23.286;2024-01-30T07:37:39;5.20;;;2.53;;
79697;SDS011;69168;42.708;23.286;2024-01-30T07:40:08;9.73;;;4.78;;
79697;SDS011;69168;42.708;23.286;2024-01-30T07:42:33;7.72;;;3.63;;
79697;SDS011;69168;42.708;23.286;2024-01-30T07:45:02;7.25;;;3.22;;
79697;SDS011;69168;42.708;23.286;2024-01-30T07:47:28;6.35;;;3.25;;
79697;SDS011;69168;42.708;23.286;2024-01-30T07:49:54;6.38;;;3.22;;
79697;SDS011;69168;42.708;23.286;2024-01-30T07:52:19;11.27;;;3.97;;
79697;SDS011;69168;42.708;23.286;2024-01-30T07:54:45;5.20;;;3.17;;
79697;SDS011;69168;42.708;23.286;2024-01-30T07:57:10;5.63;;;3.13;;
79697;SDS011;69168;42.708;23.286;2024-01-30T07:59:36;5.72;;;2.95;;
79697;SDS011;69168;42.708;23.286;2024-01-30T08:02:01;4.57;;;2.60;;
79697;SDS011;69168;42.708;23.286;2024-01-30T08:04:27;4.88;;;2.50;;
79697;SDS011;69168;42.708;23.286;2024-01-30T08:06:52;8.65;;;4.28;;
79697;SDS011;69168;42.708;23.286;2024-01-30T08:09:18;9.27;;;3.30;;
79697;SDS011;69168;42.708;23.286;2024-01-30T08:11:43;5.05;;;2.90;;
79697;SDS011;69168;42.708;23.286;2024-01-30T08:14:09;8.68;;;2.97;;
79697;SDS011;69168;42.708;23.286;2024-01-30T08:16:34;5.72;;;3.20;;
79697;SDS011;69168;42.708;23.286;2024-01-30T08:19:03;6.75;;;3.55;;
79697;SDS011;69168;42.708;23.286;2024-01-30T08:21:29;5.10;;;2.75;;
79697;SDS011;69168;42.708;23.286;2024-01-30T08:23:54;5.35;;;3.00;;
79697;SDS011;69168;42.708;23.286;2024-01-30T08:26:20;4.45;;;2.83;;
79697;SDS011;69168;42.708;23.286;2024-01-30T08:28:46;5.80;;;2.65;;
79697;SDS011;69168;42.708;23.286;2024-01-30T08:31:11;7.05;;;3.03;;
79697;SDS011;69168;42.708;23.286;2024-01-30T08:33:37;7.95;;;3.63;;
79697;SDS011;69168;42.708;23.286;2024-01-30T08:36:02;7.00;;;3.70;;
79697;SDS011;69168;42.708;23.286;2024-01-30T08:38:28;7.22;;;3.75;;
79697;SDS011;69168;42.708;23.286;2024-01-30T08:40:54;7.28;;;3.00;;
79697;SDS011;69168;42.708;23.286;2024-01-30T08:43:20;4.53;;;2.55;;
79697;SDS011;69168;42.708;23.286;2024-01-30T08:45:46;5.75;;;3.33;;
79697;SDS011;69168;42.708;23.286;2024-01-30T08:48:12;8.30;;;3.30;;
79697;SDS011;69168;42.708;23.286;2024-01-30T08:50:37;5.05;;;3.13;;
79697;SDS011;69168;42.708;23.286;2024-01-30T08:53:03;5.95;;;2.80;;
79697;SDS011;69168;42.708;23.286;2024-01-30T08:55:29;8.10;;;3.33;;
79697;SDS011;69168;42.708;23.286;2024-01-30T08:57:55;4.82;;;3.05;;
79697;SDS011;69168;42.708;23.286;2024-01-30T09:00:20;5.53;;;2.53;;
79697;SDS011;69168;42.708;23.286;2024-01-30T09:02:46;7.30;;;2.85;;
79697;SDS011;69168;42.708;23.286;2024-01-30T09:05:11;5.32;;;3.28;;
79697;SDS011;69168;42.708;23.286;2024-01-30T09:07:37;5.18;;;2.85;;
79697;SDS011;69168;42.708;23.286;2024-01-30T09:10:03;5.15;;;3.00;;
79697;SDS011;69168;42.708;23.286;2024-01-30T09:12:29;6.85;;;3.05;;
79697;SDS011;69168;42.708;23.286;2024-01-30T09:14:54;5.35;;;2.60;;
79697;SDS011;69168;42.708;23.286;2024-01-30T09:17:20;6.13;;;3.13;;
79697;SDS011;69168;42.708;23.286;2024-01-30T09:19:46;4.50;;;2.45;;
79697;SDS011;69168;42.708;23.286;2024-01-30T09:22:11;5.22;;;2.78;;
79697;SDS011;69168;42.708;23.286;2024-01-30T09:24:37;4.93;;;2.55;;
79697;SDS011;69168;42.708;23.286;2024-01-30T09:27:02;4.72;;;2.30;;
79697;SDS011;69168;42.708;23.286;2024-01-30T09:29:28;7.05;;;2.80;;
79697;SDS011;69168;42.708;23.286;2024-01-30T09:31:54;9.00;;;3.50;;
79697;SDS011;69168;42.708;23.286;2024-01-30T09:34:19;6.75;;;3.80;;
79697;SDS011;69168;42.708;23.286;2024-01-30T09:36:45;7.90;;;3.63;;
79697;SDS011;69168;42.708;23.286;2024-01-30T09:39:10;5.43;;;2.95;;
79697;SDS011;69168;42.708;23.286;2024-01-30T09:41:39;5.47;;;2.53;;
79697;SDS011;69168;42.708;23.286;2024-01-30T09:44:14;3.47;;;2.10;;
79697;SDS011;69168;42.708;23.286;2024-01-30T09:46:41;5.35;;;2.13;;
79697;SDS011;69168;42.708;23.286;2024-01-30T09:49:07;6.57;;;2.88;;
79697;SDS011;69168;42.708;23.286;2024-01-30T09:51:37;4.65;;;1.83;;
79697;SDS011;69168;42.708;23.286;2024-01-30T09:54:03;4.38;;;2.28;;
79697;SDS011;69168;42.708;23.286;2024-01-30T09:56:29;4.07;;;1.90;;
79697;SDS011;69168;42.708;23.286;2024-01-30T09:58:54;3.38;;;1.95;;
79697;SDS011;69168;42.708;23.286;2024-01-30T10:01:20;3.22;;;1.88;;
79697;SDS011;69168;42.708;23.286;2024-01-30T10:03:45;3.80;;;2.15;;
79697;SDS011;69168;42.708;23.286;2024-01-30T10:06:11;3.35;;;1.90;;
79697;SDS011;69168;42.708;23.286;2024-01-30T10:08:37;4.47;;;2.08;;
79697;SDS011;69168;42.708;23.286;2024-01-30T10:11:05;3.22;;;1.90;;
79697;SDS011;69168;42.708;23.286;2024-01-30T10:13:31;3.25;;;1.95;;
79697;SDS011;69168;42.708;23.286;2024-01-30T10:15:57;4.95;;;1.92;;
79697;SDS011;69168;42.708;23.286;2024-01-30T10:18:23;5.20;;;2.20;;
79697;SDS011;69168;42.708;23.286;2024-01-30T10:20:49;4.03;;;1.85;;
79697;SDS011;69168;42.708;23.286;2024-01-30T10:23:14;5.05;;;2.20;;
79697;SDS011;69168;42.708;23.286;2024-01-30T10:25:40;5.75;;;2.15;;
79697;SDS011;69168;42.708;23.286;2024-01-30T10:28:06;3.28;;;2.50;;
79697;SDS011;69168;42.708;23.286;2024-01-30T10:30:32;6.90;;;3.25;;
79697;SDS011;69168;42.708;23.286;2024-01-30T10:33:06;5.93;;;2.83;;
79697;SDS011;69168;42.708;23.286;2024-01-30T10:35:32;4.90;;;2.67;;
79697;SDS011;69168;42.708;23.286;2024-01-30T10:37:58;2.30;;;1.98;;
79697;SDS011;69168;42.708;23.286;2024-01-30T10:40:28;3.30;;;1.95;;
79697;SDS011;69168;42.708;23.286;2024-01-30T10:42:54;4.50;;;2.20;;
79697;SDS011;69168;42.708;23.286;2024-01-30T10:45:25;3.28;;;2.05;;
79697;SDS011;69168;42.708;23.286;2024-01-30T10:47:53;5.57;;;2.20;;
79697;SDS011;69168;42.708;23.286;2024-01-30T10:50:23;4.97;;;2.22;;
79697;SDS011;69168;42.708;23.286;2024-01-30T10:52:50;2.53;;;1.75;;
79697;SDS011;69168;42.708;23.286;2024-01-30T10:55:17;2.60;;;1.77;;
79697;SDS011;69168;42.708;23.286;2024-01-30T10:57:43;4.00;;;1.98;;
79697;SDS011;69168;42.708;23.286;2024-01-30T11:00:10;3.47;;;2.05;;
79697;SDS011;69168;42.708;23.286;2024-01-30T11:02:44;2.45;;;1.65;;
79697;SDS011;69168;42.708;23.286;2024-01-30T11:05:11;3.70;;;2.00;;
79697;SDS011;69168;42.708;23.286;2024-01-30T11:07:38;5.00;;;2.10;;
79697;SDS011;69168;42.708;23.286;2024-01-30T11:10:06;2.78;;;1.50;;
79697;SDS011;69168;42.708;23.286;2024-01-30T11:12:40;3.25;;;1.70;;
79697;SDS011;69168;42.708;23.286;2024-01-30T11:15:09;2.10;;;1.70;;
79697;SDS011;69168;42.708;23.286;2024-01-30T11:17:40;3.92;;;2.10;;
79697;SDS011;69168;42.708;23.286;2024-01-30T11:20:25;2.80;;;1.75;;
79697;SDS011;69168;42.708;23.286;2024-01-30T11:22:54;5.82;;;1.75;;
79697;SDS011;69168;42.708;23.286;2024-01-30T11:25:21;3.65;;;1.60;;
79697;SDS011;69168;42.708;23.286;2024-01-30T11:27:51;2.70;;;1.63;;
79697;SDS011;69168;42.708;23.286;2024-01-30T11:35:34;3.20;;;2.30;;
79697;SDS011;69168;42.708;23.286;2024-01-30T11:38:02;3.53;;;2.28;;
79697;SDS011;69168;42.708;23.286;2024-01-30T11:40:29;3.53;;;1.95;;
79697;SDS011;69168;42.708;23.286;2024-01-30T11:42:56;4.70;;;2.10;;
79697;SDS011;69168;42.708;23.286;2024-01-30T11:45:26;3.50;;;2.10;;
79697;SDS011;69168;42.708;23.286;2024-01-30T11:47:54;4.07;;;2.03;;
79697;SDS011;69168;42.708;23.286;2024-01-30T11:50:20;3.30;;;2.38;;
79697;SDS011;69168;42.708;23.286;2024-01-30T11:52:47;4.18;;;1.98;;
79697;SDS011;69168;42.708;23.286;2024-01-30T11:55:13;3.55;;;2.10;;
79697;SDS011;69168;42.708;23.286;2024-01-30T11:57:40;3.47;;;1.98;;
79697;SDS011;69168;42.708;23.286;2024-01-30T12:00:14;2.97;;;1.90;;
79697;SDS011;69168;42.708;23.286;2024-01-30T12:02:42;4.00;;;2.42;;
79697;SDS011;69168;42.708;23.286;2024-01-30T12:05:08;2.65;;;2.03;;
79697;SDS011;69168;42.708;23.286;2024-01-30T12:07:36;4.13;;;2.60;;
79697;SDS011;69168;42.708;23.286;2024-01-30T12:10:05;6.63;;;2.15;;
79697;SDS011;69168;42.708;23.286;2024-01-30T12:12:32;4.55;;;2.28;;
79697;SDS011;69168;42.708;23.286;2024-01-30T12:14:58;4.75;;;2.50;;
79697;SDS011;69168;42.708;23.286;2024-01-30T12:17:28;5.18;;;2.33;;
79697;SDS011;69168;42.708;23.286;2024-01-30T12:22:36;4.53;;;2.40;;
79697;SDS011;69168;42.708;23.286;2024-01-30T12:25:07;3.35;;;2.33;;
79697;SDS011;69168;42.708;23.286;2024-01-30T12:27:36;3.92;;;1.90;;
79697;SDS011;69168;42.708;23.286;2024-01-30T12:30:06;3.40;;;2.40;;
79697;SDS011;69168;42.708;23.286;2024-01-30T12:32:36;4.75;;;2.40;;
79697;SDS011;69168;42.708;23.286;2024-01-30T12:35:02;3.83;;;2.20;;
79697;SDS011;69168;42.708;23.286;2024-01-30T12:37:38;3.13;;;2.05;;
79697;SDS011;69168;42.708;23.286;2024-01-30T12:40:04;5.75;;;2.50;;
79697;SDS011;69168;42.708;23.286;2024-01-30T12:42:31;4.35;;;2.10;;
79697;SDS011;69168;42.708;23.286;2024-01-30T12:44:57;3.58;;;2.50;;
79697;SDS011;69168;42.708;23.286;2024-01-30T12:47:24;2.50;;;1.88;;
79697;SDS011;69168;42.708;23.286;2024-01-30T12:49:49;2.92;;;2.10;;
79697;SDS011;69168;42.708;23.286;2024-01-30T12:52:18;3.70;;;2.13;;
79697;SDS011;69168;42.708;23.286;2024-01-30T12:54:44;4.68;;;2.30;;
79697;SDS011;69168;42.708;23.286;2024-01-30T12:57:10;3.53;;;2.50;;
79697;SDS011;69168;42.708;23.286;2024-01-30T12:59:35;4.38;;;2.47;;
79697;SDS011;69168;42.708;23.286;2024-01-30T13:02:01;3.72;;;2.47;;
79697;SDS011;69168;42.708;23.286;2024-01-30T13:04:28;3.78;;;2.30;;
79697;SDS011;69168;42.708;23.286;2024-01-30T13:06:56;4.63;;;2.67;;
79697;SDS011;69168;42.708;23.286;2024-01-30T13:09:25;5.40;;;3.10;;
79697;SDS011;69168;42.708;23.286;2024-01-30T13:11:50;5.80;;;3.40;;
79697;SDS011;69168;42.708;23.286;2024-01-30T13:14:16;5.95;;;2.72;;
79697;SDS011;69168;42.708;23.286;2024-01-30T13:16:42;6.68;;;3.28;;
79697;SDS011;69168;42.708;23.286;2024-01-30T13:19:08;3.65;;;2.72;;
79697;SDS011;69168;42.708;23.286;2024-01-30T13:21:34;3.10;;;2.50;;
79697;SDS011;69168;42.708;23.286;2024-01-30T13:23:59;3.65;;;2.63;;
79697;SDS011;69168;42.708;23.286;2024-01-30T13:26:25;3.10;;;2.40;;
79697;SDS011;69168;42.708;23.286;2024-01-30T13:28:51;4.10;;;2.45;;
79697;SDS011;69168;42.708;23.286;2024-01-30T13:31:16;6.22;;;2.85;;
79697;SDS011;69168;42.708;23.286;2024-01-30T13:33:45;5.75;;;2.58;;
79697;SDS011;69168;42.708;23.286;2024-01-30T13:36:11;3.85;;;2.70;;
79697;SDS011;69168;42.708;23.286;2024-01-30T13:38:37;4.93;;;2.90;;
79697;SDS011;69168;42.708;23.286;2024-01-30T13:41:03;5.32;;;2.55;;
79697;SDS011;69168;42.708;23.286;2024-01-30T13:43:29;4.38;;;2.75;;
79697;SDS011;69168;42.708;23.286;2024-01-30T13:45:54;4.20;;;2.80;;
79697;SDS011;69168;42.708;23.286;2024-01-30T13:48:23;8.55;;;3.55;;
79697;SDS011;69168;42.708;23.286;2024-01-30T13:50:48;6.80;;;3.38;;
79697;SDS011;69168;42.708;23.286;2024-01-30T13:53:14;5.28;;;3.05;;
79697;SDS011;69168;42.708;23.286;2024-01-30T13:55:39;4.47;;;3.00;;
79697;SDS011;69168;42.708;23.286;2024-01-30T13:58:05;5.03;;;2.95;;
79697;SDS011;69168;42.708;23.286;2024-01-30T14:02:58;4.35;;;3.00;;
79697;SDS011;69168;42.708;23.286;2024-01-30T14:05:24;5.13;;;3.47;;
79697;SDS011;69168;42.708;23.286;2024-01-30T14:07:50;5.55;;;3.47;;
79697;SDS011;69168;42.708;23.286;2024-01-30T14:10:17;7.25;;;2.90;;
79697;SDS011;69168;42.708;23.286;2024-01-30T14:12:45;5.65;;;2.85;;
79697;SDS011;69168;42.708;23.286;2024-01-30T14:15:13;4.53;;;2.90;;
79697;SDS011;69168;42.708;23.286;2024-01-30T14:17:47;4.07;;;2.72;;
79697;SDS011;69168;42.708;23.286;2024-01-30T14:20:13;4.80;;;3.20;;
79697;SDS011;69168;42.708;23.286;2024-01-30T14:22:39;4.35;;;2.70;;
79697;SDS011;69168;42.708;23.286;2024-01-30T14:25:05;5.50;;;3.30;;
79697;SDS011;69168;42.708;23.286;2024-01-30T14:27:34;5.05;;;2.80;;
79697;SDS011;69168;42.708;23.286;2024-01-30T14:30:03;4.30;;;2.80;;
79697;SDS011;69168;42.708;23.286;2024-01-30T14:32:29;5.50;;;2.78;;
79697;SDS011;69168;42.708;23.286;2024-01-30T14:34:54;5.72;;;3.30;;
79697;SDS011;69168;42.708;23.286;2024-01-30T14:37:20;7.63;;;3.20;;
79697;SDS011;69168;42.708;23.286;2024-01-30T14:39:47;5.45;;;3.50;;